createdAt,value
2023-01-11T00:03:41.385Z,-20.32
2023-01-11T00:08:44.504Z,-20.21
2023-01-11T00:13:47.739Z,-20.37
2023-01-11T00:18:50.919Z,-20.34
2023-01-11T00:23:53.982Z,-20.57
2023-01-11T00:28:57.060Z,-20.24
2023-01-11T00:34:00.572Z,-20.38
2023-01-11T00:39:03.641Z,-20.34
2023-01-11T00:44:25.312Z,-20.45
2023-01-11T00:49:28.559Z,-20.23
2023-01-11T00:54:31.708Z,-20.59
2023-01-11T00:59:36.295Z,-20.32
2023-01-11T01:04:40.122Z,-20.39
2023-01-11T01:09:43.156Z,-20.37
2023-01-11T01:14:47.642Z,-20.31
2023-01-11T01:19:50.660Z,-20.39
2023-01-11T01:24:53.760Z,-20.36
2023-01-11T01:29:56.831Z,-20.49
2023-01-11T01:34:59.954Z,-20.42
2023-01-11T01:40:03.669Z,-20.51
2023-01-11T01:45:18.012Z,-20.37
2023-01-11T01:50:25.841Z,-20.45
2023-01-11T01:55:33.611Z,-20.42
2023-01-11T02:00:40.084Z,-20.40
2023-01-11T02:05:47.216Z,-20.41
2023-01-11T02:10:51.043Z,-20.67
2023-01-11T02:16:08.273Z,-20.69
2023-01-11T02:21:42.926Z,-20.99
2023-01-11T02:27:16.111Z,-20.78
2023-01-11T02:32:52.934Z,-20.76
2023-01-11T02:38:20.297Z,-20.61
2023-01-11T02:44:02.025Z,-20.58
2023-01-11T02:49:34.022Z,-20.58
2023-01-11T02:54:39.611Z,-20.65
2023-01-11T02:59:42.934Z,-20.60
2023-01-11T03:04:45.994Z,-20.87
2023-01-11T03:09:51.583Z,-20.73
2023-01-11T03:15:18.863Z,-20.83
2023-01-11T03:20:31.073Z,-20.88
2023-01-11T03:25:51.099Z,-20.88
2023-01-11T03:31:07.408Z,-20.62
2023-01-11T03:36:16.553Z,-20.66
2023-01-11T03:41:22.607Z,-20.64
2023-01-11T03:46:32.376Z,-20.69
2023-01-11T03:51:42.910Z,-20.68
2023-01-11T03:56:59.337Z,-20.89
2023-01-11T04:02:03.060Z,-20.72
2023-01-11T04:07:06.143Z,-20.51
2023-01-11T04:12:09.334Z,-20.92
2023-01-11T04:17:12.445Z,-21.02
2023-01-11T04:22:15.998Z,-20.80
2023-01-11T04:27:19.145Z,-20.65
2023-01-11T04:32:22.200Z,-20.69
2023-01-11T04:37:25.259Z,-20.76
2023-01-11T04:42:28.363Z,-20.75
2023-01-11T04:47:31.789Z,-20.56
2023-01-11T04:52:34.918Z,-20.77
2023-01-11T04:57:38.143Z,-21.11
2023-01-11T05:02:41.320Z,-20.81
2023-01-11T05:07:44.555Z,-20.96
2023-01-11T05:12:47.691Z,-20.93
2023-01-11T05:17:50.549Z,-20.69
2023-01-11T05:22:53.566Z,-20.36
2023-01-11T05:27:56.681Z,-20.32
2023-01-11T05:32:59.757Z,-20.45
2023-01-11T05:38:02.816Z,-20.06
2023-01-11T05:43:05.987Z,-19.84
2023-01-11T05:48:09.039Z,-19.52
2023-01-11T05:53:12.125Z,-19.52
2023-01-11T05:58:15.199Z,-19.25
2023-01-11T06:03:19.276Z,-18.91
2023-01-11T06:08:22.418Z,-19.43
2023-01-11T06:13:29.073Z,-18.98
2023-01-11T06:18:35.138Z,-18.71
2023-01-11T06:23:40.736Z,-18.84
2023-01-11T06:28:44.066Z,-18.58
2023-01-11T06:33:47.644Z,-18.05
2023-01-11T06:38:52.648Z,-18.02
2023-01-11T06:43:55.724Z,-17.92
2023-01-11T06:48:58.896Z,-17.74
2023-01-11T06:54:01.993Z,-17.54
2023-01-11T06:59:05.169Z,-17.48
2023-01-11T07:04:08.636Z,-17.15
2023-01-11T07:09:11.767Z,-17.14
2023-01-11T07:14:20.184Z,-16.86
2023-01-11T07:19:23.374Z,-16.62
2023-01-11T07:24:28.560Z,-16.13
2023-01-11T07:29:31.630Z,-16.28
2023-01-11T07:34:35.104Z,-15.92
2023-01-11T07:39:43.832Z,-15.82
2023-01-11T07:44:47.280Z,-15.79
2023-01-11T07:49:50.419Z,-15.46
2023-01-11T07:54:53.609Z,-15.30
2023-01-11T07:59:56.711Z,-15.50
2023-01-11T08:05:01.189Z,-15.21
2023-01-11T08:10:36.566Z,-15.18
2023-01-11T08:15:42.856Z,-15.03
2023-01-11T08:20:46.770Z,-15.04
2023-01-11T08:25:50.040Z,-15.15
2023-01-11T08:30:53.184Z,-14.78
2023-01-11T08:35:56.269Z,-14.80
2023-01-11T08:40:59.694Z,-14.92
2023-01-11T08:46:03.088Z,-14.71
2023-01-11T08:56:26.877Z,-15.14
2023-01-11T09:01:30.335Z,-15.06
2023-01-11T09:06:33.443Z,-14.85
2023-01-11T09:11:54.797Z,-14.66
2023-01-11T09:16:58.292Z,-14.57
2023-01-11T09:22:09.985Z,-14.27
2023-01-11T09:27:13.163Z,-14.40
2023-01-11T09:32:16.578Z,-14.04
2023-01-11T09:37:20.591Z,-14.02
2023-01-11T09:42:40.185Z,-14.22
2023-01-11T09:48:12.098Z,-14.09
2023-01-11T09:53:36.507Z,-14.39
2023-01-11T09:58:57.848Z,-13.88
2023-01-11T10:04:33.256Z,-13.92
2023-01-11T10:18:37.593Z,-13.87
2023-01-11T10:21:23.756Z,-13.66
2023-01-11T10:26:29.541Z,-13.46
2023-01-11T10:31:51.417Z,-13.35
2023-01-11T10:42:46.947Z,-13.14
2023-01-11T10:48:03.224Z,-13.09
2023-01-11T10:53:21.032Z,-13.04
2023-01-11T10:58:46.479Z,-13.14
2023-01-11T11:04:04.494Z,-13.37
2023-01-11T11:15:14.380Z,-13.12
2023-01-11T11:25:43.374Z,-13.42
2023-01-11T11:30:47.839Z,-13.33
2023-01-11T11:36:00.475Z,-13.37
2023-01-11T11:41:10.512Z,-13.47
2023-01-11T11:46:20.490Z,-13.32
2023-01-11T11:51:25.585Z,-13.52
2023-01-11T11:56:33.348Z,-13.33
2023-01-11T12:01:46.963Z,-13.39
2023-01-11T12:07:19.800Z,-13.45
2023-01-11T12:12:26.914Z,-13.40
2023-01-11T12:17:31.075Z,-13.68
2023-01-11T12:22:34.241Z,-13.47
2023-01-11T12:27:55.697Z,-13.38
2023-01-11T12:33:13.542Z,-13.56
2023-01-11T12:38:32.134Z,-13.68
2023-01-11T12:43:59.835Z,-13.58
2023-01-11T12:49:02.924Z,-13.69
2023-01-11T12:54:17.881Z,-13.71
2023-01-11T12:59:57.337Z,-13.77
2023-01-11T13:05:03.329Z,-13.85
2023-01-11T13:10:15.801Z,-13.83
2023-01-11T13:15:42.203Z,-14.02
2023-01-11T13:21:01.240Z,-14.11
2023-01-11T13:26:23.733Z,-14.16
2023-01-11T13:31:27.455Z,-14.19
2023-01-11T13:36:41.128Z,-14.33
2023-01-11T13:42:50.024Z,-14.40
2023-01-11T13:47:30.083Z,-14.38
2023-01-11T13:52:48.410Z,-14.36
2023-01-11T14:03:41.568Z,-14.62
2023-01-11T14:08:54.966Z,-14.68
2023-01-11T14:14:35.391Z,-14.78
2023-01-11T14:20:01.738Z,-14.87
2023-01-11T14:25:15.527Z,-15.00
2023-01-11T14:30:18.581Z,-15.03
2023-01-11T14:35:43.721Z,-15.10
2023-01-11T14:40:54.621Z,-15.24
2023-01-11T14:46:00.787Z,-15.19
2023-01-11T14:51:23.936Z,-15.51
2023-01-11T14:57:01.865Z,-15.50
2023-01-11T15:02:16.540Z,-15.45
2023-01-11T15:07:33.705Z,-15.43
2023-01-11T15:12:41.371Z,-15.65
2023-01-11T15:18:05.251Z,-15.62
2023-01-11T15:23:32.648Z,-15.94
2023-01-11T15:29:03.585Z,-15.73
2023-01-11T15:34:25.219Z,-15.97
2023-01-11T15:39:58.448Z,-15.92
2023-01-11T15:45:14.543Z,-15.71
2023-01-11T15:50:54.852Z,-15.88
2023-01-11T15:56:22.600Z,-16.05
2023-01-11T16:01:29.301Z,-15.88
2023-01-11T16:07:09.777Z,-15.77
2023-01-11T16:12:30.434Z,-15.93
2023-01-11T16:17:33.823Z,-16.04
2023-01-11T16:22:37.047Z,-16.11
2023-01-11T16:27:40.396Z,-16.12
2023-01-11T16:32:43.492Z,-16.24
2023-01-11T16:38:02.056Z,-16.00
2023-01-11T16:43:22.469Z,-15.88
2023-01-11T16:48:27.619Z,-16.24
2023-01-11T16:53:34.375Z,-15.98
2023-01-11T16:58:39.532Z,-16.01
2023-01-11T17:03:51.129Z,-15.97
2023-01-11T17:08:56.863Z,-16.11
2023-01-11T17:14:38.315Z,-16.09
2023-01-11T17:19:47.367Z,-15.98
2023-01-11T17:24:53.076Z,-16.01
2023-01-11T17:29:58.626Z,-15.92
2023-01-11T17:35:05.852Z,-15.95
2023-01-11T17:40:32.183Z,-16.08
2023-01-11T17:45:36.394Z,-15.91
2023-01-11T17:50:58.234Z,-16.05
2023-01-11T17:56:07.608Z,-15.96
2023-01-11T18:01:16.656Z,-15.99
2023-01-11T18:06:37.799Z,-16.02
2023-01-11T18:11:41.807Z,-15.90
2023-01-11T18:17:03.622Z,-16.09
2023-01-11T18:22:43.347Z,-16.00
2023-01-11T18:27:47.389Z,-15.92
2023-01-11T18:32:50.715Z,-15.99
2023-01-11T18:37:53.867Z,-16.12
2023-01-11T18:42:57.779Z,-16.10
2023-01-11T18:48:00.895Z,-16.15
2023-01-11T18:53:04.044Z,-16.18
2023-01-11T18:58:07.237Z,-16.16
2023-01-11T19:03:12.003Z,-15.91
2023-01-11T19:08:15.089Z,-16.10
2023-01-11T19:13:19.805Z,-16.18
2023-01-11T19:18:23.373Z,-16.17
2023-01-11T19:23:26.502Z,-16.03
2023-01-11T19:28:30.079Z,-16.18
2023-01-11T19:33:33.145Z,-16.11
2023-01-11T19:38:36.488Z,-16.20
2023-01-11T19:43:45.219Z,-16.13
2023-01-11T19:48:48.075Z,-16.14
2023-01-11T19:53:51.026Z,-16.10
2023-01-11T19:58:54.148Z,-16.05
2023-01-11T20:03:57.171Z,-16.17
2023-01-11T20:09:00.469Z,-15.96
2023-01-11T20:14:03.523Z,-16.00
2023-01-11T20:19:06.653Z,-16.06
2023-01-11T20:24:13.203Z,-16.24
2023-01-11T20:29:16.289Z,-16.11
2023-01-11T20:34:19.755Z,-16.00
2023-01-11T20:39:22.812Z,-16.16
2023-01-11T20:44:32.380Z,-16.22
2023-01-11T20:49:35.564Z,-16.15
2023-01-11T20:54:38.678Z,-16.08
2023-01-11T20:59:41.742Z,-16.13
2023-01-11T21:04:44.780Z,-16.12
2023-01-11T21:09:47.828Z,-16.13
2023-01-11T21:14:51.035Z,-16.18
2023-01-11T21:19:54.294Z,-16.27
2023-01-11T21:24:57.383Z,-16.21
2023-01-11T21:30:00.353Z,-16.44
2023-01-11T21:35:03.494Z,-16.47
2023-01-11T21:40:07.051Z,-16.29
2023-01-11T21:45:11.397Z,-16.35
2023-01-11T21:50:14.483Z,-16.52
2023-01-11T21:55:18.106Z,-16.33
2023-01-11T22:00:21.454Z,-16.49
2023-01-11T22:05:25.164Z,-16.40
2023-01-11T22:10:28.297Z,-16.64
2023-01-11T22:15:54.246Z,-16.52
2023-01-11T22:20:57.980Z,-16.60
2023-01-11T22:31:31.878Z,-16.71
2023-01-11T22:36:35.024Z,-16.87
2023-01-11T22:41:40.267Z,-16.52
2023-01-11T22:46:44.269Z,-16.68
2023-01-11T22:51:47.393Z,-16.61
2023-01-11T22:56:50.596Z,-16.89
2023-01-11T23:01:53.607Z,-16.84
2023-01-11T23:06:57.675Z,-16.74
2023-01-11T23:12:19.150Z,-16.75
2023-01-11T23:17:22.314Z,-16.66
2023-01-11T23:22:25.429Z,-16.71
2023-01-11T23:27:28.515Z,-16.53
2023-01-11T23:32:31.708Z,-16.60
2023-01-11T23:37:34.825Z,-16.60
2023-01-11T23:42:38.918Z,-16.69
2023-01-11T23:47:42.054Z,-16.35
2023-01-11T23:52:45.089Z,-16.52
2023-01-11T23:58:08.109Z,-16.28
